KMDH Weather | Aviation | SIU

Home
Southern Illinois University

CONTACT

SIU.EDU

Aviation - Weather

College of Applied Sciences and Arts

KMDH Weather

NOTICE: Although all weather products are taken from the National Weather Service, this data should be used only as a supplement to a formal weather briefing.

Last Updated: Monday, October 21st, 2019, 10:35 am
Information on this page is updated every 5 minutes.


METARS

KMDH 211452Z 20011KT 10SM FEW017 17/15 A2961 RMK AO2 PK WND 14027/1402 WSHFT

KMDH 211421Z 24012G21KT 10SM FEW012 SCT049 BKN110 17/15 A2960 RMK AO2 PK WND

KMDH 211352Z 15018G27KT 10SM SCT090 OVC110 17/15 A2954 RMK AO2 PK WND 15027/1347

KMDH 211252Z 19010G18KT 5SM RA BR FEW070 BKN090 OVC110 17/15 A2962 RMK AO2

KMWA 211445Z 24010KT 10SM SCT040 OVC150 16/16 A2963

KMWA 211345Z 13010KT 10SM -RA SCT060 OVC100 16/15 A2959

KMWA 211245Z 22010KT 7SM -RA SCT095 OVC100 16/15 A2964

KCGI 211516Z 21015G23KT 10SM SCT039 BKN049 BKN100 18/15 A2964 RMK AO2 WSHFT 1456

KCGI 211453Z 17011G22KT 10SM SCT110 17/15 A2961 RMK AO2 SLP024 60017 T01720150

KCGI 211353Z 17014G25KT 10SM FEW100 SCT120 17/15 A2959 RMK AO2 PK WND 13029/1338

KCGI 211253Z 14009KT 6SM RA BR FEW060 BKN085 OVC110 17/15 A2963 RMK AO2 LTG DSNT

KSAR 211455Z AUTO 19013G19KT 10SM CLR 17/16 A2959 RMK AO2 60002 T01660156

KSAR 211435Z AUTO 18013KT 10SM CLR 16/16 A2958 RMK AO2 T01630156

KSAR 211415Z AUTO 20010G15KT 10SM CLR 16/16 A2957 RMK AO2 T01610155

KSAR 211355Z AUTO 20011G16KT 10SM SCT014 16/16 A2957 RMK AO2 T01600155

KSAR 211335Z AUTO 21008KT 10SM SCT012 SCT018 16/16 A2956 RMK AO2 T01600155

KSAR 211315Z AUTO 21010G18KT 10SM SCT100 16/15 A2955 RMK AO2 T01600153

KSAR 211255Z AUTO 14012G23KT 10SM RA OVC100 16/16 A2953 RMK AO2 LTG DSNT SE

KSAR 211235Z AUTO 15015G19KT 10SM -RA OVC110 17/16 A2958 RMK AO2 P0001 T01650160

KFAM 211456Z AUTO 21015G21KT 10SM OVC012 16/15 A2960 RMK AO2 SLP029 60001

KFAM 211431Z AUTO 20013G17KT 10SM BKN014 OVC020 16/15 A2960 RMK AO2

KFAM 211414Z AUTO 20011G18KT 10SM FEW011 OVC018 16/15 A2960 RMK AO2

KFAM 211404Z AUTO 20010KT 10SM FEW009 BKN014 OVC020 16/15 A2959 RMK AO2

KFAM 211356Z AUTO 20012KT 10SM BKN009 OVC018 16/15 A2958 RMK AO2 CIG 007V013

KFAM 211256Z AUTO 20005KT 10SM OVC009 16/15 A2957 RMK AO2 RAE17 CIG 007V012

KFAM 211247Z AUTO 17008KT 10SM BKN009 16/15 A2956 RMK AO2 RAE17 CIG 007V013

KMVN 211523Z AUTO 20012KT 10SM SCT017 17/16 A2960 RMK AO2

KMVN 211456Z AUTO 21011KT 10SM BKN015 17/16 A2960 RMK AO2 WSHFT 1343 RAE09

KMVN 211403Z AUTO 15010G15KT 10SM -RA SCT075 BKN090 OVC110 17/16 A2953 RMK AO2

KMVN 211356Z AUTO 13012G17KT 9SM -RA FEW034 BKN090 OVC110 16/16 A2953 RMK AO2

KMVN 211256Z AUTO 19011KT 10SM -RA BKN080 OVC095 17/16 A2963 RMK AO2 SLP036

KHSB 211515Z AUTO 17009KT 10SM SCT120 17/15 A2962 RMK AO2 P0001 T01700152

KHSB 211455Z AUTO 15011G17KT 10SM -RA SCT100 17/15 A2960 RMK AO2 P0003 60021

KHSB 211435Z AUTO 15012G15KT 10SM -RA OVC100 17/15 A2962 RMK AO2 P0003 T01650146

KCIR 211515Z AUTO 15010G14KT 10SM -RA SCT042 SCT065 OVC100 17/16 A2964 RMK AO2

KCIR 211455Z AUTO 18009G16KT 10SM -DZ SCT043 SCT070 BKN095 17/16 A2968 RMK AO2

KCIR 211435Z AUTO 20008KT 10SM SCT095 BKN110 17/16 A2967 RMK AO2 T01650158

KPAH 211453Z 16009KT 10SM BKN100 OVC110 18/17 A2963 RMK AO2 RAE06B36E51 SLP030

KFAM 211456Z AUTO 21015G21KT 10SM OVC012 16/15 A2960 RMK AO2 SLP029 60001

KFAM 211431Z AUTO 20013G17KT 10SM BKN014 OVC020 16/15 A2960 RMK AO2

KBLV 211521Z AUTO 19008G16KT 10SM OVC019 17/15 A2955 RMK AO2 CIG 019V023 OVC V

KBLV 211516Z AUTO 19009G16KT 10SM SCT017 OVC022 17/15 A2955 RMK AO2 OVC V BKN

KBLV 211511Z AUTO 19007G16KT 10SM BKN019 BKN025 OVC050 17/15 A2955 RMK AO2 CIG

KBLV 211506Z AUTO 19007G16KT 10SM SCT016 BKN022 BKN050 17/15 A2954 RMK AO2 CIG

KBLV 211501Z AUTO 20008KT 10SM SCT018 BKN025 BKN055 17/15 A2954 RMK AO2 CIG

KBLV 211456Z 20004KT 10SM FEW020 SCT050 17/15 A2954 RMK AO2A SLP005 60000

KSTL 211437Z 22020G30KT 10SM BKN020 OVC055 17/14 A2953 RMK AO2 PK WND 20030/1437

KVIH 211518Z AUTO 25014G25KT 10SM FEW023 13/07 A2962 RMK AO2 T01280067

KVIH 211453Z AUTO 24014G26KT 10SM BKN020 BKN028 12/08 A2960 RMK AO2 PK WND

KENL 211515Z AUTO 19011KT 10SM SCT047 SCT060 17/16 A2957 RMK AO2 T01730155

KENL 211455Z AUTO 21013G16KT 10SM SCT060 17/15 A2958 RMK AO2 60005 T01710152

KENL 211435Z AUTO 23013G16KT 10SM SCT016 17/15 A2956 RMK AO2 T01700153

KMTO 211515Z AUTO 19013G20KT 10SM BKN012 17/14 A2955 RMK AO2 PK WND 15026/1456

KMTO 211453Z AUTO 15016G31KT 10SM FEW010 SCT120 16/14 A2948 RMK AO2 PK WND

KFWC 211515Z AUTO 19006KT 10SM SCT095 SCT120 17/17 A2960 RMK AO1 P0001 T01650165

KFWC 211455Z AUTO 13013G18KT 10SM -RA OVC110 16/16 A2951 RMK AO1 P0001 60013

KFWC 211435Z AUTO 13009KT 10SM -RA OVC100 16/16 A2956 RMK AO1 P0001 T01620162

KCUL 211515Z AUTO 14012G17KT 10SM SCT007 SCT038 SCT055 16/16 A2960 RMK AO2 P0001

KCUL 211455Z AUTO 14014KT 10SM -RA OVC095 16/16 A2962 RMK AO2 P0011

KCUL 211435Z AUTO 15011KT 7SM -RA SCT012 SCT027 OVC095 16/16 A2964 RMK AO2 P0011

KEVV 211519Z 16005KT 5SM -RA BR FEW006 BKN075 OVC110 17/16 A2969 RMK AO2 PRESFR

KEVV 211512Z 19006KT 3SM R22/5500VP6000FT -RA BR FEW006 BKN024 OVC090 17/16

KEVV 211510Z 19006KT 1 1/2SM R22/2800VP6000FT RA BR SCT010 BKN024 OVC090 17/16

KEVV 211504Z 18004KT 1/2SM R22/2200VP6000FT +RA FG FEW005 BKN016 OVC060 16/16

KEVV 211456Z 25014G21KT 1 1/4SM R22/3000VP6000FT +RA BR SCT007 BKN016 OVC060

KEVV 211454Z 26013G21KT 2SM -RA BR BKN007 BKN026 OVC055 17/15 A2974 RMK AO2 LTG

KEVV 211434Z 18007KT 2SM R22/4500VP6000FT +RA BR BKN008 BKN026 OVC060 17/15

KOWB 211508Z 17016G20KT 10SM -TSRA FEW022 BKN035 OVC044 19/18 A2970 RMK AO2

KOWB 211456Z 16014G18KT 8SM -TSRA SCT023 BKN028 OVC042 19/18 A2971 RMK AO2 LTG

KEHR 211453Z AUTO 00000KT 4SM -RA BR SCT004 SCT012 16/16 A2971 RMK AO2 TSE1359

KEHR 211444Z AUTO 27009KT 1 1/2SM +RA BR BKN004 BKN010 OVC031 16/16 A2973 RMK

KEHR 211441Z AUTO 27013KT 2 1/2SM +RA BR SCT004 BKN010 OVC031 16/16 A2974 RMK

KCEY 211515Z AUTO 17008G17KT 130V190 10SM FEW010 FEW110 18/18 A2973 RMK AO1

KCEY 211455Z AUTO 16007KT 10SM FEW095 18/18 A2971 RMK AO1

KCEY 211435Z AUTO 15007KT 10SM FEW085 18/18 A2971 RMK AO1

KHOP 211516Z AUTO 19016G23KT 10SM SCT023 SCT028 SCT035 22/18 A2976 RMK AO2

KHOP 211506Z AUTO 19015G24KT 10SM SCT021 BKN027 BKN035 21/18 A2977 RMK AO2 CIG

KHOP 211456Z AUTO 19013G26KT 10SM FEW022 OVC031 20/18 A2977 RMK AO2 PK WND

KDYR 211456Z AUTO 17009G17KT 10SM -RA OVC008 18/17 A2975 RMK AO2 CIG 005V011

KARG 211503Z AUTO 21017G22KT 10SM BKN023 BKN032 OVC044 RMK AO2 FZRANO $

KARG 211456Z AUTO 21016KT 10SM SCT023 BKN032 OVC044 A2968 RMK AO2 RAE07 SLPNO

KARG 211438Z AUTO 20016KT 10SM SCT016 BKN030 OVC044 A2968 RMK AO2 RAE07 P0000

KJBR 211513Z AUTO 21011KT 10SM SCT008 BKN015 OVC024 18/17 A2970 RMK AO2

KJBR 211453Z AUTO 19009KT 10SM OVC008 18/17 A2971 RMK AO2 RAE27 CIG 005V011

KJBR 211439Z AUTO 21011G18KT 10SM BKN006 BKN110 18/17 A2973 RMK AO2 RAE27 PRESRR

KUNO 211446Z AUTO 25012G22KT 10SM FEW013 SCT020 15/12 A2968 RMK AO2 T01500117

KUNO 211438Z AUTO 25013G22KT 10SM SCT010 BKN016 15/12 A2967 RMK AO2 T01500122

KALN 211447Z 20014G22KT 10SM OVC020 17/16 A2953

KALN 211447Z 20014G22KT 10SM OVC020 17/16 A2953

KCOU 211454Z 26014G27KT 10SM CLR 12/06 A2957 RMK AO2 PK WND 24027/1450 SLP010

KSPI 211448Z 19016G28KT 10SM FEW016 BKN020 OVC044 18/14 A2946 RMK AO2 PK WND

KAJG 211455Z AUTO 16014G17KT 5SM -RA SCT006 BKN012 OVC050 17/16 A2966 RMK AO2

KAJG 211435Z AUTO 15012KT 10SM -RA BKN050 OVC070 17/16 A2966 RMK AO2 LTG DSNT E

KM30 211515Z AUTO 21005KT 10SM -RA SCT042 BKN090 OVC120 18/17 A2969 RMK AO2

KM30 211455Z AUTO 18007KT 10SM SCT045 SCT075 BKN120 18/17 A2966 RMK AO2 60047

KM30 211435Z AUTO 14009KT 10SM -RA SCT070 BKN090 OVC110 17/16 A2963 RMK AO2

KDEC 211454Z 18016G26KT 10SM CLR 17/14 A2950 RMK AO2 PK WND 16033/1355 SLP987

KIJX 211455Z AUTO 20013G17KT 10SM OVC010 16/15 A2947 RMK AO2 T01630148

KIJX 211435Z AUTO 19011G18KT 10SM OVC010 16/15 A2946 RMK AO2 T01620148


TAFS

KEVV 211249Z 2113/2212 17010G20KT 6SM -SHRA SCT040 OVC060 WS020/18045KT

        TEMPO 2113/2115 2SM TSRA BR BKN025CB

        FM211500 17015G25KT P6SM -SHRA OVC025

        TEMPO 2115/2117 4SM TSRA OVC015CB

        FM211700 19017KT 6SM -SHRA SCT021 OVC060

        TEMPO 2117/2119 4SM TSRA BKN021CB

        FM212300 23010KT P6SM SCT035 BKN100


Winds Aloft



Pilot Reports

No pilot reports found for area.



Area Forecast



Significant Weather

WAUS46 KKCI 211445 SFOZ WA 211445 AIRMET ZULU UPDT 2 FOR ICE AND FRZLVL VALID UNTIL 212100 AIRMET ICE...WA OR ID MT NV UT AND CSTL WTRS FROM 40SW YXC TO 40NNE FCA TO 40SW DBS TO 20S BVL TO 70E BAM TO BTG TO 90W TOU TO 20ENE HUH TO 40SW YXC MOD ICE BTN FRZLVL AND FL220. FRZLVL 050-090. CONDS CONTG BYD 21Z THRU 03Z. OTLK VALID 2100-0300Z...ICE WA OR ID MT WY AND CSTL WTRS BOUNDED BY 30ESE YXC-20S YQL-80SW BIL-BPI-20S PIH-50SW BOI-20W YKM-140W HQM-120W TOU-20ENE HUH-30ESE YXC MOD ICE BTN FRZLVL AND FL220. FRZLVL 050-090. CONDS CONTG THRU 03Z. FRZLVL...RANGING FROM SFC-165 ACRS AREA 080 ALG 30NW TOU-30W REO-30S REO 120 ALG 170WSW HQM-70WNW ONP-60SW LKV-50NNW FMG 160 ALG 140SSW SNS-120WSW RZS-50S RZS-LAX-20SE TRM-BZA
WAUS43 KKCI 211445 CHIZ WA 211445 AIRMET ZULU UPDT 2 FOR ICE AND FRZLVL VALID UNTIL 212100 AIRMET ICE...MO LM LS MI LH IL IN KY FROM 50NW SSM TO 60WNW YVV TO 30ESE ECK TO FWA TO CVG TO 40W HMV TO 30NNW DYR TO 30ESE AXC TO ORD TO 50NW SSM MOD ICE BTN FRZLVL AND FL230. FRZLVL 050-120. CONDS CONTG BYD 21Z THRU 03Z. OTLK VALID 2100-0300Z AREA 1...ICE ND SD NE KS MN IA MO WI LS MI IL BOUNDED BY 30N INL-30E YQT-70NNE DLH-30SSE DLH-50SE BRD-20SW MSP-20NNE EAU-50S DLL-50NE MCI-40NE ICT-20SW SLN-30NNW LBF-60NE MOT-30N INL MOD ICE BTN FRZLVL AND 170. FRZLVL 030-070. CONDS CONTG THRU 03Z. AREA 2...ICE MN WI LM LS MI LH IN KY BOUNDED BY 20E YQT-SSM-YVV-30SE ECK-FWA-CVG-HNN-HMV-60WNW BNA-30W FWA-40SW MBS-50NW ASP-20SSE DLH-70NNE DLH-20E YQT MOD ICE BTN FRZLVL AND FL230. FRZLVL 040-120. CONDS CONTG THRU 03Z. FRZLVL...RANGING FROM SFC-145 ACRS AREA MULT FRZLVL 060-090 BOUNDED BY 40WNW ORD-50S BDF-30WSW STL- 30SSW COU-BUM-60WSW IRK-30NW UIN-30ESE DBQ-40WNW ORD MULT FRZLVL BLW 050 BOUNDED BY 80NW ISN-50N ISN-40N MOT-30WNW BIS-80SSW DIK-80NW ISN 040 ALG 20WSW ISN-40ENE DIK-30NNW BIS-90SW YWG 080 ALG 20NW RZC-20ESE SGF-40WNW JOT-30W BAE-20NW RHI-70N SAW 120 ALG 60ENE DYR-40WSW CVG-50SW ROD 120 ALG 40SW DXO-20W DXO-40ENE ECK
WAUS45 KKCI 211412 AAA SLCS WA 211412 AMD AIRMET SIERRA UPDT 2 FOR IFR AND MTN OBSCN VALID UNTIL 211500 AIRMET MTN OBSCN...ID MT WY NV UT CO WA OR FROM 50WSW YXC TO 40S YQL TO SHR TO CYS TO 50SE HBU TO 30SE DVC TO 20NNE JNC TO 20SSW BVL TO 30ENE TWF TO 50SSE BOI TO 40WNW BOI TO 70ESE DSD TO 30SE PDT TO 30WSW EPH TO 50SE YDC TO 50WSW YXC MTNS OBSC BY CLDS/PCPN/BR. CONDS CONTG BYD 15Z THRU 21Z.
WAUS43 KKCI 211445 CHIT WA 211445 AIRMET TANGO UPDT 3 FOR TURB STG WNDS AND LLWS VALID UNTIL 212100 AIRMET TURB...ND SD NE MN IA MO WI LM LS MI LH IL IN KY AR TN LA MS AL FROM YQT TO SSM TO 50NW YVV TO 40E ECK TO FWA TO CVG TO 60E CVG TO 20WSW MHZ TO 50SE MLU TO 30S EIC TO 40W SGF TO 40WSW FOD TO 60SSW FSD TO 40NNW ANW TO 20ENE BIS TO 30SW INL TO YQT MOD TURB BLW FL180. CONDS CONTG BYD 21Z THRU 03Z. OTLK VALID 2100-0300Z AREA 1...TURB ND SD NE KS MN IA BOUNDED BY 60NW GFK-30SW INL-30ESE BJI-20N BRD-60SSE RWF-20NNW DSM-OVR-60E OBH-40WSW PWE-30SSE MCK-50WSW LBF-60ESE RAP-50ENE BIS-60NW GFK MOD TURB BLW 120. CONDS CONTG THRU 03Z. AREA 2...TURB ND SD NE KS BOUNDED BY 50NNW ISN-80ENE MOT-60E GCK-50W LBL-GLD-BFF-70SW RAP- 50NNW ISN MOD TURB BTN FL180 AND FL430. CONDS CONTG THRU 03Z. AREA 3...TURB KS MO KY OK TX AR TN LA MS AL AND CSTL WTRS BOUNDED BY CVG-HNN-HMV-GQO-50SW PZD-40W CEW-90SSE SJI-40E LEV- 70SW LEV-120SSW LCH-80E BRO-90W BRO-DLF-90S MRF-ELP-INK-30ESE TBE-50W LBL-60E GCK-70ESE SLN-OSW-30ESE BNA-CVG MOD TURB BTN FL240 AND FL450. CONDS CONTG THRU 03Z.
WAUS43 KKCI 211332 AAA CHIT WA 211332 AMD AIRMET TANGO UPDT 2 FOR TURB STG WNDS AND LLWS VALID UNTIL 211500 AIRMET TURB...MO IL IN KY OK TX AR TN LA MS AL AND CSTL WTRS FROM 50WSW ROD TO HMV TO GQO TO 30WNW ATL TO 20NNW SJI TO 50SSW LCH TO 20SSE PSX TO 40SSW LRD TO DLF TO 90S MRF TO 60SSW MRF TO 50WSW ROD MOD TURB BTN FL240 AND FL410. CONDS CONTG BYD 15Z THRU 21Z. OTLK VALID 1500-2100Z AREA 1...TURB SD MN IA MO WI LM LS MI LH IL IN KY AR TN LA MS AL BOUNDED BY 30WSW INL-YQT-SSM-50NW YVV-40E ECK-FWA-CVG-40ESE CVG- 20S BWG-30N MSL-20WSW MHZ-50SE MLU-30E TXK-20SSE SGF-20SE DSM- FSD-40WNW BRD-30WSW INL MOD TURB BTN 030 AND FL180. CONDS CONTG THRU 21Z. AREA 2...TURB KS MO MI LH IL IN KY OK TX AR TN LA MS AL AND CSTL WTRS...UPDT BOUNDED BY 20ESE ECK-FWA-CVG-HNN-HMV-GQO-30W ATL-20NNW SJI-50SSW LCH-20SSE PSX-50S LRD-DLF-90S MRF-ELP-INK-30ESE TBE-50W LBL- 40WNW OSW-FWA-20ESE ECK MOD TURB BTN FL240 AND FL450. CONDS CONTG THRU 21Z. AREA 3...TURB ND SD NE KS MN IA MO WI LM LS MI LH IL IN...UPDT BOUNDED BY 50S YWG-30N INL-YQT-SSM-50WNW YVV-20SE ECK-FWA-40WNW OSW-20ESE PIR-50S YWG MOD TURB BTN FL180 AND FL450. CONDS DVLPG 15-18Z. CONDS CONTG THRU 21Z. AREA 4...STG SFC WNDS ND SD NE KS MN IA BOUNDED BY 20NE FAR-50S BJI-60NNW RWF-30W SLN-50SE HLC-30N GLD- 30ENE SNY-40ENE BFF-50N PIR-60WSW FAR-20NE FAR SUSTAINED SURFACE WINDS GTR THAN 30KT EXP. CONDS CONTG THRU 21Z. AREA 5...STG SFC WNDS MN WI LS MI BOUNDED BY YQT-70NE SAW-20N SAW-70NNW RHI-20N DLH-YQT SUSTAINED SURFACE WINDS GTR THAN 30KT EXP. CONDS DVLPG 18-21Z. CONDS CONTG THRU 21Z.
WAUS44 KKCI 211332 AAA DFWT WA 211332 AMD AIRMET TANGO UPDT 2 FOR TURB AND LLWS VALID UNTIL 211500 AIRMET TURB...OK TX AR TN LA MS AL MO IL IN KY AND CSTL WTRS FROM 50WSW ROD TO HMV TO GQO TO 30WNW ATL TO 20NNW SJI TO 50SSW LCH TO 20SSE PSX TO 40SSW LRD TO DLF TO 90S MRF TO 60SSW MRF TO 50WSW ROD MOD TURB BTN FL240 AND FL410. CONDS CONTG BYD 15Z THRU 21Z. OTLK VALID 1500-2100Z AREA 1...TURB AR TN LA MS AL SD MN IA MO WI LM LS MI LH IL IN KY BOUNDED BY 30WSW INL-YQT-SSM-50NW YVV-40E ECK-FWA-CVG-40ESE CVG- 20S BWG-30N MSL-20WSW MHZ-50SE MLU-30E TXK-20SSE SGF-20SE DSM- FSD-40WNW BRD-30WSW INL MOD TURB BTN 030 AND FL180. CONDS CONTG THRU 21Z. AREA 2...TURB OK TX AR TN LA MS AL KS MO MI LH IL IN KY AND CSTL WTRS...UPDT BOUNDED BY 20ESE ECK-FWA-CVG-HNN-HMV-GQO-30W ATL-20NNW SJI-50SSW LCH-20SSE PSX-50S LRD-DLF-90S MRF-ELP-INK-30ESE TBE-50W LBL- 40WNW OSW-FWA-20ESE ECK MOD TURB BTN FL240 AND FL450. CONDS CONTG THRU 21Z.
WAUS43 KKCI 211332 AAA CHIT WA 211332 AMD AIRMET TANGO UPDT 2 FOR TURB STG WNDS AND LLWS VALID UNTIL 211500 AIRMET TURB...ND SD NE KS MN IA MO WI LM LS MI LH IL IN KY OK TX AR...UPDT FROM 30N INL TO 30SE YQT TO 70NE SAW TO YVV TO 20ESE ECK TO FWA TO 50WSW ROD TO 60SSW MRF TO ELP TO INK TO 30ESE TBE TO 50W LBL TO GLD TO SNY TO 40ESE LBF TO 50NE MOT TO 30N INL MOD TURB BTN FL180 AND FL450. CONDS CONTG BYD 15Z ENDG BY 18Z. OTLK VALID 1500-2100Z AREA 1...TURB SD MN IA MO WI LM LS MI LH IL IN KY AR TN LA MS AL BOUNDED BY 30WSW INL-YQT-SSM-50NW YVV-40E ECK-FWA-CVG-40ESE CVG- 20S BWG-30N MSL-20WSW MHZ-50SE MLU-30E TXK-20SSE SGF-20SE DSM- FSD-40WNW BRD-30WSW INL MOD TURB BTN 030 AND FL180. CONDS CONTG THRU 21Z. AREA 2...TURB KS MO MI LH IL IN KY OK TX AR TN LA MS AL AND CSTL WTRS...UPDT BOUNDED BY 20ESE ECK-FWA-CVG-HNN-HMV-GQO-30W ATL-20NNW SJI-50SSW LCH-20SSE PSX-50S LRD-DLF-90S MRF-ELP-INK-30ESE TBE-50W LBL- 40WNW OSW-FWA-20ESE ECK MOD TURB BTN FL240 AND FL450. CONDS CONTG THRU 21Z. AREA 3...TURB ND SD NE KS MN IA MO WI LM LS MI LH IL IN...UPDT BOUNDED BY 50S YWG-30N INL-YQT-SSM-50WNW YVV-20SE ECK-FWA-40WNW OSW-20ESE PIR-50S YWG MOD TURB BTN FL180 AND FL450. CONDS DVLPG 15-18Z. CONDS CONTG THRU 21Z. AREA 4...STG SFC WNDS ND SD NE KS MN IA BOUNDED BY 20NE FAR-50S BJI-60NNW RWF-30W SLN-50SE HLC-30N GLD- 30ENE SNY-40ENE BFF-50N PIR-60WSW FAR-20NE FAR SUSTAINED SURFACE WINDS GTR THAN 30KT EXP. CONDS CONTG THRU 21Z. AREA 5...STG SFC WNDS MN WI LS MI BOUNDED BY YQT-70NE SAW-20N SAW-70NNW RHI-20N DLH-YQT SUSTAINED SURFACE WINDS GTR THAN 30KT EXP. CONDS DVLPG 18-21Z. CONDS CONTG THRU 21Z.
WAUS44 KKCI 211332 AAA DFWT WA 211332 AMD AIRMET TANGO UPDT 2 FOR TURB AND LLWS VALID UNTIL 211500 AIRMET TURB...OK TX AR ND SD NE KS MN IA MO WI LM LS MI LH IL IN KY...UPDT FROM 30N INL TO 30SE YQT TO 70NE SAW TO YVV TO 20ESE ECK TO FWA TO 50WSW ROD TO 60SSW MRF TO ELP TO INK TO 30ESE TBE TO 50W LBL TO GLD TO SNY TO 40ESE LBF TO 50NE MOT TO 30N INL MOD TURB BTN FL180 AND FL450. CONDS CONTG BYD 15Z ENDG BY 18Z. LLWS POTENTIAL...OK TX AR TN LA MS AL MN IA MO WI LM LS MI IL IN KY BOUNDED BY 20NE DLH-90S YQT-40NNE TVC-40ENE BWG-40E MSL-20ESE MHZ-20SE EIC-40WSW TXK-30S FSM-30SSE SGF-30N SGF-50WNW COU-20SSW DSM-30NNW MSP-20NE DLH LLWS EXP. CONDS CONTG BYD 15Z THRU 21Z. LLWS POTENTIAL...OK TX SD NE KS BOUNDED BY 40S DPR-50SW OBH-40NNW OSW-20ENE TUL-60SSE MLC-50SE ADM-30SSE SPS-50ENE CDS-40SSW MMB-40SSW GLD-30SSE BFF-40S DPR LLWS EXP. CONDS ENDG 12-15Z. OTLK VALID 1500-2100Z AREA 1...TURB AR TN LA MS AL SD MN IA MO WI LM LS MI LH IL IN KY BOUNDED BY 30WSW INL-YQT-SSM-50NW YVV-40E ECK-FWA-CVG-40ESE CVG- 20S BWG-30N MSL-20WSW MHZ-50SE MLU-30E TXK-20SSE SGF-20SE DSM- FSD-40WNW BRD-30WSW INL MOD TURB BTN 030 AND FL180. CONDS CONTG THRU 21Z. AREA 2...TURB OK TX AR TN LA MS AL KS MO MI LH IL IN KY AND CSTL WTRS...UPDT BOUNDED BY 20ESE ECK-FWA-CVG-HNN-HMV-GQO-30W ATL-20NNW SJI-50SSW LCH-20SSE PSX-50S LRD-DLF-90S MRF-ELP-INK-30ESE TBE-50W LBL- 40WNW OSW-FWA-20ESE ECK MOD TURB BTN FL240 AND FL450. CONDS CONTG THRU 21Z.
WAUS43 KKCI 211332 AAA CHIT WA 211332 AMD AIRMET TANGO UPDT 2 FOR TURB STG WNDS AND LLWS VALID UNTIL 211500 AIRMET TURB...ND SD NE KS MN IA MO WI LM LS MI IL IN KY OK TX AR TN LA MS FROM 40WNW SAW TO 30ESE GRR TO 20NNW CVG TO 50SE MLU TO 30SW LCH TO 50E CWK TO 30WSW ADM TO 40NE TTT TO 50WSW OVR TO 40E ONL TO 50SE ABR TO 50S FAR TO 40WNW BRD TO 40WNW SAW MOD TURB BTN 030 AND FL180. CONDS CONTG BYD 15Z THRU 21Z. OTLK VALID 1500-2100Z AREA 1...TURB SD MN IA MO WI LM LS MI LH IL IN KY AR TN LA MS AL BOUNDED BY 30WSW INL-YQT-SSM-50NW YVV-40E ECK-FWA-CVG-40ESE CVG- 20S BWG-30N MSL-20WSW MHZ-50SE MLU-30E TXK-20SSE SGF-20SE DSM- FSD-40WNW BRD-30WSW INL MOD TURB BTN 030 AND FL180. CONDS CONTG THRU 21Z. AREA 2...TURB KS MO MI LH IL IN KY OK TX AR TN LA MS AL AND CSTL WTRS...UPDT BOUNDED BY 20ESE ECK-FWA-CVG-HNN-HMV-GQO-30W ATL-20NNW SJI-50SSW LCH-20SSE PSX-50S LRD-DLF-90S MRF-ELP-INK-30ESE TBE-50W LBL- 40WNW OSW-FWA-20ESE ECK MOD TURB BTN FL240 AND FL450. CONDS CONTG THRU 21Z. AREA 3...TURB ND SD NE KS MN IA MO WI LM LS MI LH IL IN...UPDT BOUNDED BY 50S YWG-30N INL-YQT-SSM-50WNW YVV-20SE ECK-FWA-40WNW OSW-20ESE PIR-50S YWG MOD TURB BTN FL180 AND FL450. CONDS DVLPG 15-18Z. CONDS CONTG THRU 21Z. AREA 4...STG SFC WNDS ND SD NE KS MN IA BOUNDED BY 20NE FAR-50S BJI-60NNW RWF-30W SLN-50SE HLC-30N GLD- 30ENE SNY-40ENE BFF-50N PIR-60WSW FAR-20NE FAR SUSTAINED SURFACE WINDS GTR THAN 30KT EXP. CONDS CONTG THRU 21Z. AREA 5...STG SFC WNDS MN WI LS MI BOUNDED BY YQT-70NE SAW-20N SAW-70NNW RHI-20N DLH-YQT SUSTAINED SURFACE WINDS GTR THAN 30KT EXP. CONDS DVLPG 18-21Z. CONDS CONTG THRU 21Z.
WAUS44 KKCI 211332 AAA DFWT WA 211332 AMD AIRMET TANGO UPDT 2 FOR TURB AND LLWS VALID UNTIL 211500 AIRMET TURB...OK TX AR TN LA MS ND SD NE KS MN IA MO WI LM LS MI IL IN KY FROM 40WNW SAW TO 30ESE GRR TO 20NNW CVG TO 50SE MLU TO 30SW LCH TO 50E CWK TO 30WSW ADM TO 40NE TTT TO 50WSW OVR TO 40E ONL TO 50SE ABR TO 50S FAR TO 40WNW BRD TO 40WNW SAW MOD TURB BTN 030 AND FL180. CONDS CONTG BYD 15Z THRU 21Z. OTLK VALID 1500-2100Z AREA 1...TURB AR TN LA MS AL SD MN IA MO WI LM LS MI LH IL IN KY BOUNDED BY 30WSW INL-YQT-SSM-50NW YVV-40E ECK-FWA-CVG-40ESE CVG- 20S BWG-30N MSL-20WSW MHZ-50SE MLU-30E TXK-20SSE SGF-20SE DSM- FSD-40WNW BRD-30WSW INL MOD TURB BTN 030 AND FL180. CONDS CONTG THRU 21Z. AREA 2...TURB OK TX AR TN LA MS AL KS MO MI LH IL IN KY AND CSTL WTRS...UPDT BOUNDED BY 20ESE ECK-FWA-CVG-HNN-HMV-GQO-30W ATL-20NNW SJI-50SSW LCH-20SSE PSX-50S LRD-DLF-90S MRF-ELP-INK-30ESE TBE-50W LBL- 40WNW OSW-FWA-20ESE ECK MOD TURB BTN FL240 AND FL450. CONDS CONTG THRU 21Z.
WAUS44 KKCI 211445 DFWT WA 211445 AIRMET TANGO UPDT 3 FOR TURB AND LLWS VALID UNTIL 212100 AIRMET TURB...AR TN LA MS AL ND SD NE MN IA MO WI LM LS MI LH IL IN KY FROM YQT TO SSM TO 50NW YVV TO 40E ECK TO FWA TO CVG TO 60E CVG TO 20WSW MHZ TO 50SE MLU TO 30S EIC TO 40W SGF TO 40WSW FOD TO 60SSW FSD TO 40NNW ANW TO 20ENE BIS TO 30SW INL TO YQT MOD TURB BLW FL180. CONDS CONTG BYD 21Z THRU 03Z. OTLK VALID 2100-0300Z...TURB OK TX AR TN LA MS AL KS MO KY AND CSTL WTRS BOUNDED BY CVG-HNN-HMV-GQO-50SW PZD-40W CEW-90SSE SJI-40E LEV- 70SW LEV-120SSW LCH-80E BRO-90W BRO-DLF-90S MRF-ELP-INK-30ESE TBE-50W LBL-60E GCK-70ESE SLN-OSW-30ESE BNA-CVG MOD TURB BTN FL240 AND FL450. CONDS CONTG THRU 03Z.
WAUS43 KKCI 211445 CHIT WA 211445 AIRMET TANGO UPDT 3 FOR TURB STG WNDS AND LLWS VALID UNTIL 212100 AIRMET TURB...ND SD NE KS MN IA MO WI LM LS MI LH IL IN KY FROM 30NNW INL TO 50ESE YQT TO 60WNW YVV TO 30SSE ECK TO FWA TO CVG TO HNN TO HMV TO RZC TO OSW TO 50W LBL TO GLD TO 50NW SLN TO 40W ANW TO 50NNE ISN TO 30NNW INL MOD TURB BTN FL180 AND FL450. CONDS CONTG BYD 21Z THRU 03Z. OTLK VALID 2100-0300Z AREA 1...TURB ND SD NE KS MN IA BOUNDED BY 60NW GFK-30SW INL-30ESE BJI-20N BRD-60SSE RWF-20NNW DSM-OVR-60E OBH-40WSW PWE-30SSE MCK-50WSW LBF-60ESE RAP-50ENE BIS-60NW GFK MOD TURB BLW 120. CONDS CONTG THRU 03Z. AREA 2...TURB ND SD NE KS BOUNDED BY 50NNW ISN-80ENE MOT-60E GCK-50W LBL-GLD-BFF-70SW RAP- 50NNW ISN MOD TURB BTN FL180 AND FL430. CONDS CONTG THRU 03Z. AREA 3...TURB KS MO KY OK TX AR TN LA MS AL AND CSTL WTRS BOUNDED BY CVG-HNN-HMV-GQO-50SW PZD-40W CEW-90SSE SJI-40E LEV- 70SW LEV-120SSW LCH-80E BRO-90W BRO-DLF-90S MRF-ELP-INK-30ESE TBE-50W LBL-60E GCK-70ESE SLN-OSW-30ESE BNA-CVG MOD TURB BTN FL240 AND FL450. CONDS CONTG THRU 03Z.
WAUS46 KKCI 211141 AAB SFOS WA 211141 AMD AIRMET SIERRA UPDT 3 FOR IFR AND MTN OBSCN VALID UNTIL 211500 AIRMET MTN OBSCN...WA OR ID MT WY NV UT CO FROM 50WSW YXC TO 40S YQL TO SHR TO CYS TO 50SE HBU TO 30SE DVC TO 20NNE JNC TO 20SSW BVL TO 30ENE TWF TO 50SSE BOI TO 40WNW BOI TO 70ESE DSD TO 30SE PDT TO 30WSW EPH TO 50SE YDC TO 50WSW YXC MTNS OBSC BY CLDS/PCPN/BR. CONDS CONTG BYD 15Z THRU 21Z.
WAUS44 KKCI 210845 DFWS WA 210845 AIRMET SIERRA UPDT 1 FOR IFR AND MTN OBSCN VALID UNTIL 211500 AIRMET IFR...OK TX AR TN LA MS MO IL IN KY AND CSTL WTRS FROM STL TO PXV TO 30W SQS TO LCH TO CRP TO BRO TO 90W BRO TO JCT TO SGF TO STL CIG BLW 010/VIS BLW 3SM PCPN/BR. CONDS CONTG BYD 15Z ENDG 15-18Z.
WAUS43 KKCI 210845 CHIS WA 210845 AIRMET SIERRA UPDT 1 FOR IFR AND MTN OBSCN VALID UNTIL 211500 AIRMET IFR...MO IL IN KY OK TX AR TN LA MS AND CSTL WTRS FROM STL TO PXV TO 30W SQS TO LCH TO CRP TO BRO TO 90W BRO TO JCT TO SGF TO STL CIG BLW 010/VIS BLW 3SM PCPN/BR. CONDS CONTG BYD 15Z ENDG 15-18Z. OTLK VALID 1500-2100Z...IFR ND SD NE MN IA MO WI LS MI IL IN BOUNDED BY 90SW YWG-30NNE GFK-60NNW RHI-TTH-STL-30NW COU-50ESE OBH-20S OBH-20SW LBF-40NE BFF-BIS-90SW YWG CIG BLW 010/VIS BLW 3SM PCPN/BR. CONDS CONTG THRU 21Z.